Time;durP1;ratioP1;P1;durP2;ratioP2;P2;SDS_P1;SDS_P2;PMS_P1;PMS_P2;Temp;Humidity;BMP_temperature;BMP_pressure;BME280_temperature;BME280_humidity;BME280_pressure;Samples;Min_cycle;Max_cycle;Signal;HPM_P1;HPM_P2
2024/01/17 00:00:34;;;;;;;;;;;;;;;-0.66;86.03;95110.19;5075796;28;957;-59
2024/01/17 00:03:09;;;;;;;;;;;;;;;-0.55;86.19;95121.81;5075510;28;996;-59
2024/01/17 00:05:43;;;;;;;;;;;;;;;-0.50;86.04;95122.38;5075865;28;940;-60
2024/01/17 00:08:17;;;;;;;;;;;;;;;-0.68;84.88;95119.97;5075370;28;1909;-60
2024/01/17 00:10:50;;;;;;;;;;;;;;;-0.76;85.32;95116.94;5075546;28;1650;-59
2024/01/17 00:13:24;;;;;;;;;;;;;;;-0.82;84.66;95115.53;5075269;28;973;-59
2024/01/17 00:15:58;;;;;;;;;;;;;;;-1.20;85.47;95116.03;5075580;28;941;-59
2024/01/17 00:18:32;;;;;;;;;;;;;;;-1.51;87.13;95124.88;5075171;28;1000;-59
2024/01/17 00:21:07;;;;;;;;;;;;;;;-1.35;88.29;95118.75;5075361;28;980;-59
2024/01/17 00:23:41;;;;;;;;;;;;;;;-1.22;86.97;95122.34;5075301;28;1113;-59
2024/01/17 00:26:15;;;;;;;;;;;;;;;-1.11;87.17;95126.94;5074861;28;2037;-59
2024/01/17 00:28:50;;;;;;;;;;;;;;;-0.88;87.46;95121.16;5075078;28;1969;-59
2024/01/17 00:31:24;;;;;;;;;;;;;;;-0.77;87.05;95131.03;5075264;28;961;-59
2024/01/17 00:33:58;;;;;;;;;;;;;;;-0.81;85.78;95132.16;5075285;28;941;-59
2024/01/17 00:36:32;;;;;;;;;;;;;;;-0.82;86.18;95125.19;5074835;28;912;-59
2024/01/17 00:39:07;;;;;;;;;;;;;;;-0.83;86.36;95123.53;5075021;28;1001;-59
2024/01/17 00:41:41;;;;;;;;;;;;;;;-1.20;86.42;95116.03;5074853;28;968;-59
2024/01/17 00:44:18;;;;;;;;;;;;;;;-1.21;87.27;95121.41;5074934;28;965;-59
2024/01/17 00:46:51;;;;;;;;;;;;;;;-1.07;87.07;95110.09;5074754;28;1910;-58
2024/01/17 00:49:25;;;;;;;;;;;;;;;-1.10;86.67;95126.88;5074567;28;976;-58
2024/01/17 00:51:59;;;;;;;;;;;;;;;-1.43;87.08;95111.31;5073537;28;1212;-59
2024/01/17 00:54:34;;;;;;;;;;;;;;;-1.59;88.63;95104.34;5054518;28;912;-59
2024/01/17 00:57:08;;;;;;;;;;;;;;;-1.26;88.59;95108.53;5054849;28;929;-59
2024/01/17 00:59:42;;;;;;;;;;;;;;;-1.05;88.26;95106.41;5054710;28;985;-59
2024/01/17 01:02:17;;;;;;;;;;;;;;;-0.98;87.15;95112.16;5054638;28;1036;-59
2024/01/17 01:05:02;;;;;;;;;;;;;;;-1.10;87.26;95111.13;5054317;28;1726;-59
2024/01/17 01:07:37;;;;;;;;;;;;;;;-1.20;86.98;95115.22;5054510;28;1914;-59
2024/01/17 01:10:11;;;;;;;;;;;;;;;-1.40;87.96;95116.41;5054245;28;941;-60
2024/01/17 01:12:44;;;;;;;;;;;;;;;-1.23;87.93;95118.88;5054563;28;933;-59
2024/01/17 01:15:18;;;;;;;;;;;;;;;-1.01;87.57;95113.16;5054713;28;889;-59
2024/01/17 01:17:52;;;;;;;;;;;;;;;-1.09;85.99;95127.69;5054123;28;937;-59
2024/01/17 01:20:27;;;;;;;;;;;;;;;-1.16;85.86;95116.72;5053978;28;1000;-59
2024/01/17 01:23:01;;;;;;;;;;;;;;;-1.13;86.60;95123.56;5054062;28;925;-59
2024/01/17 01:25:35;;;;;;;;;;;;;;;-1.18;86.41;95115.97;5053517;28;1117;-59
2024/01/17 01:28:07;;;;;;;;;;;;;;;-1.21;86.95;95122.25;5053701;28;1909;-59
2024/01/17 01:30:42;;;;;;;;;;;;;;;-1.10;87.87;95132.13;5052776;28;997;-59
2024/01/17 01:33:16;;;;;;;;;;;;;;;-1.06;86.32;95130.16;5054016;28;948;-59
2024/01/17 01:35:50;;;;;;;;;;;;;;;-1.55;85.81;95120.75;5053852;28;981;-59
2024/01/17 01:38:24;;;;;;;;;;;;;;;-1.78;88.14;95119.44;5053678;28;913;-59
2024/01/17 01:40:59;;;;;;;;;;;;;;;-1.54;88.06;95118.97;5053661;28;996;-59
2024/01/17 01:43:33;;;;;;;;;;;;;;;-1.30;87.49;95120.16;5053606;28;914;-59
2024/01/17 01:46:16;;;;;;;;;;;;;;;-1.19;87.57;95119.53;5053618;28;992;-59
2024/01/17 01:48:51;;;;;;;;;;;;;;;-1.20;87.20;95115.22;5053538;28;1981;-59
2024/01/17 01:51:26;;;;;;;;;;;;;;;-1.33;86.74;95106.38;5053746;28;929;-59
2024/01/17 01:54:02;;;;;;;;;;;;;;;-1.59;86.32;95106.97;5071502;28;1295;-58
2024/01/17 01:56:36;;;;;;;;;;;;;;;-1.50;87.36;95095.13;5073521;28;995;-59
2024/01/17 01:59:11;;;;;;;;;;;;;;;-1.33;87.61;95101.13;5073493;28;930;-59
2024/01/17 02:01:44;;;;;;;;;;;;;;;-1.26;87.48;95095.44;5073330;28;869;-59
2024/01/17 02:04:18;;;;;;;;;;;;;;;-1.34;86.88;95091.59;5073503;28;1001;-59
2024/01/17 02:06:51;;;;;;;;;;;;;;;-1.31;87.46;95088.75;5073332;28;1890;-59
2024/01/17 02:09:26;;;;;;;;;;;;;;;-1.35;86.79;95087.25;5073495;28;940;-59
2024/01/17 02:12:01;;;;;;;;;;;;;;;-1.27;86.76;95087.63;5073192;28;1090;-59
2024/01/17 02:14:39;;;;;;;;;;;;;;;-1.54;87.02;95079.63;5073413;28;912;-59
2024/01/17 02:17:13;;;;;;;;;;;;;;;-1.60;88.64;95086.06;5073123;28;1745;-59
2024/01/17 02:19:47;;;;;;;;;;;;;;;-1.62;88.57;95095.81;5073450;28;937;-59
2024/01/17 02:22:21;;;;;;;;;;;;;;;-1.86;88.37;95096.31;5073338;28;941;-59
2024/01/17 02:24:56;;;;;;;;;;;;;;;-1.75;89.11;95092.22;5073027;28;1157;-59
2024/01/17 02:27:30;;;;;;;;;;;;;;;-1.64;88.71;95097.69;5073106;28;1910;-59
2024/01/17 02:30:06;;;;;;;;;;;;;;;-1.77;88.27;95089.66;5073390;28;936;-59
2024/01/17 02:32:42;;;;;;;;;;;;;;;-1.77;88.67;95087.88;5073084;28;987;-59
2024/01/17 02:35:16;;;;;;;;;;;;;;;-1.70;88.50;95082.31;5073200;28;929;-59
2024/01/17 02:37:51;;;;;;;;;;;;;;;-1.60;87.30;95083.44;5073363;28;931;-59
2024/01/17 02:40:25;;;;;;;;;;;;;;;-1.95;87.95;95078.47;5076308;28;1011;-59
2024/01/17 02:42:59;;;;;;;;;;;;;;;-1.89;89.01;95078.13;5077164;28;936;-59
2024/01/17 02:45:34;;;;;;;;;;;;;;;-1.64;88.68;95081.94;5077171;28;929;-59
2024/01/17 02:48:08;;;;;;;;;;;;;;;-1.62;88.13;95090.56;5076909;28;1909;-59
2024/01/17 02:50:43;;;;;;;;;;;;;;;-1.61;88.76;95087.88;5076966;28;941;-59
2024/01/17 02:53:17;;;;;;;;;;;;;;;-1.75;87.42;95084.34;5064851;28;1160;-59
2024/01/17 02:55:51;;;;;;;;;;;;;;;-2.17;88.45;95074.44;5056767;28;980;-59
2024/01/17 02:58:23;;;;;;;;;;;;;;;-2.07;89.49;95087.00;5036904;28;790;-59
2024/01/17 03:00:58;;;;;;;;;;;;;;;-2.01;89.42;95089.28;5036971;28;1031;-59
2024/01/17 03:03:32;;;;;;;;;;;;;;;-1.87;89.22;95097.22;5036928;28;981;-58
2024/01/17 03:06:06;;;;;;;;;;;;;;;-1.84;88.85;95091.81;5036729;28;950;-59
2024/01/17 03:08:39;;;;;;;;;;;;;;;-2.26;89.61;95090.66;5036449;28;1909;-58
2024/01/17 03:11:13;;;;;;;;;;;;;;;-2.14;89.77;95089.16;5036714;28;992;-59
2024/01/17 03:13:47;;;;;;;;;;;;;;;-2.08;89.49;95090.59;5036725;28;1481;-59
2024/01/17 03:16:22;;;;;;;;;;;;;;;-2.24;89.94;95101.06;5036538;28;1008;-58
2024/01/17 03:18:56;;;;;;;;;;;;;;;-2.21;91.20;95099.09;5036633;28;993;-59
2024/01/17 03:21:31;;;;;;;;;;;;;;;-2.01;90.29;95105.88;5036607;28;930;-59
2024/01/17 03:24:05;;;;;;;;;;;;;;;-2.01;90.18;95110.25;5036157;28;1090;-59
2024/01/17 03:26:40;;;;;;;;;;;;;;;-1.93;89.21;95108.06;5036288;28;1910;-59
2024/01/17 03:29:14;;;;;;;;;;;;;;;-1.83;88.02;95100.50;5036107;28;1098;-59
2024/01/17 03:31:49;;;;;;;;;;;;;;;-1.88;88.00;95095.50;5036453;28;1024;-59
2024/01/17 03:34:23;;;;;;;;;;;;;;;-1.99;88.24;95095.31;5036251;28;988;-59
2024/01/17 03:36:57;;;;;;;;;;;;;;;-2.18;89.11;95093.72;5034967;28;1008;-58
2024/01/17 03:39:32;;;;;;;;;;;;;;;-2.00;89.68;95091.81;5036514;28;925;-59
2024/01/17 03:42:07;;;;;;;;;;;;;;;-1.78;89.76;95088.84;5036026;28;970;-59
2024/01/17 03:44:42;;;;;;;;;;;;;;;-1.69;89.03;95090.09;5035894;28;914;-59
2024/01/17 03:47:17;;;;;;;;;;;;;;;-1.59;89.02;95099.09;5036044;28;1910;-59
2024/01/17 03:49:51;;;;;;;;;;;;;;;-1.64;88.95;95103.75;5035415;28;969;-59
2024/01/17 03:52:25;;;;;;;;;;;;;;;-1.79;87.37;95109.88;5045165;28;1158;-59
2024/01/17 03:55:00;;;;;;;;;;;;;;;-2.26;86.98;95106.38;5075996;28;933;-59
2024/01/17 03:57:34;;;;;;;;;;;;;;;-2.26;88.42;95111.59;5075512;28;996;-59
2024/01/17 04:00:06;;;;;;;;;;;;;;;-2.46;88.49;95114.50;5075783;28;1419;-59
2024/01/17 04:02:40;;;;;;;;;;;;;;;-2.64;89.35;95130.25;5075573;28;1031;-59
2024/01/17 04:05:17;;;;;;;;;;;;;;;-2.66;90.25;95120.78;5075658;28;940;-59
2024/01/17 04:07:51;;;;;;;;;;;;;;;-2.54;90.59;95125.38;5055221;28;1914;-59
2024/01/17 04:10:25;;;;;;;;;;;;;;;-2.44;90.99;95137.03;5055598;28;1028;-59
2024/01/17 04:13:03;;;;;;;;;;;;;;;-2.20;90.47;95121.78;5055541;28;845;-58
2024/01/17 04:15:37;;;;;;;;;;;;;;;-2.07;89.38;95134.16;5055580;28;1015;-58
2024/01/17 04:18:11;;;;;;;;;;;;;;;-2.30;87.79;95138.91;5055455;28;1047;-58
2024/01/17 04:20:44;;;;;;;;;;;;;;;-2.48;89.45;95139.91;5055165;28;979;-58
2024/01/17 04:23:18;;;;;;;;;;;;;;;-2.55;89.76;95132.38;5055145;28;1073;-58
2024/01/17 04:25:53;;;;;;;;;;;;;;;-2.38;90.16;95138.47;5055329;28;943;-58
2024/01/17 04:28:27;;;;;;;;;;;;;;;-2.29;89.21;95147.63;5055141;28;1981;-58
2024/01/17 04:31:01;;;;;;;;;;;;;;;-2.42;88.40;95142.19;5055052;28;1003;-58
2024/01/17 04:33:34;;;;;;;;;;;;;;;-2.33;88.38;95139.09;5054935;28;935;-58
2024/01/17 04:36:08;;;;;;;;;;;;;;;-2.56;89.13;95132.47;5055317;28;987;-58
2024/01/17 04:38:43;;;;;;;;;;;;;;;-2.59;88.60;95132.63;5054891;28;984;-58
2024/01/17 04:41:18;;;;;;;;;;;;;;;-2.78;89.96;95138.84;5054965;28;1020;-58
2024/01/17 04:43:51;;;;;;;;;;;;;;;-2.59;89.97;95141.31;5053906;28;940;-58
2024/01/17 04:46:25;;;;;;;;;;;;;;;-2.46;89.73;95132.81;5046636;28;1276;-58
2024/01/17 04:49:00;;;;;;;;;;;;;;;-2.29;89.39;95130.13;5034582;28;1906;-58
2024/01/17 04:51:32;;;;;;;;;;;;;;;-2.29;89.63;95131.91;5034698;28;1523;-57
2024/01/17 04:54:07;;;;;;;;;;;;;;;-2.56;87.68;95130.69;5072190;28;1150;-58
2024/01/17 04:56:39;;;;;;;;;;;;;;;-2.52;89.22;95125.28;5074769;28;998;-57
2024/01/17 04:59:12;;;;;;;;;;;;;;;-2.51;89.76;95135.66;5074448;28;1581;-56
2024/01/17 05:01:44;;;;;;;;;;;;;;;-2.39;89.90;95124.56;5073838;28;949;-57
2024/01/17 05:04:18;;;;;;;;;;;;;;;-2.22;89.78;95118.38;5074471;28;1538;-57
2024/01/17 05:06:49;;;;;;;;;;;;;;;-2.12;88.90;95128.38;5074446;28;1918;-59
2024/01/17 05:09:24;;;;;;;;;;;;;;;-2.24;88.68;95132.47;5074244;28;1004;-57
2024/01/17 05:11:57;;;;;;;;;;;;;;;-2.43;88.51;95115.19;5074216;28;948;-56
2024/01/17 05:14:31;;;;;;;;;;;;;;;-2.49;89.23;95122.50;5074396;28;1020;-57
2024/01/17 05:17:04;;;;;;;;;;;;;;;-2.41;89.31;95122.91;5074237;28;913;-57
2024/01/17 05:19:39;;;;;;;;;;;;;;;-2.26;89.07;95129.09;5074382;28;1004;-57
2024/01/17 05:22:14;;;;;;;;;;;;;;;-2.21;88.90;95141.03;5073923;28;1652;-58
2024/01/17 05:24:48;;;;;;;;;;;;;;;-2.59;88.55;95125.63;5073996;28;1088;-58
2024/01/17 05:27:21;;;;;;;;;;;;;;;-2.50;89.28;95123.41;5073874;28;1910;-59
2024/01/17 05:29:55;;;;;;;;;;;;;;;-2.68;89.02;95118.25;5073885;28;916;-58
2024/01/17 05:32:29;;;;;;;;;;;;;;;-3.36;89.20;95042.47;5074006;28;1001;-57
2024/01/17 05:35:02;;;;;;;;;;;;;;;-2.69;90.04;95124.44;5073752;28;991;-58
2024/01/17 05:37:38;;;;;;;;;;;;;;;-2.56;90.06;95124.63;5073723;28;921;-58
2024/01/17 05:40:12;;;;;;;;;;;;;;;-2.40;89.63;95142.97;5073772;28;943;-58
2024/01/17 05:42:45;;;;;;;;;;;;;;;-2.29;89.37;95140.59;5073627;28;953;-58
2024/01/17 05:45:17;;;;;;;;;;;;;;;-2.49;88.46;95143.44;5073673;28;1434;-58
2024/01/17 05:47:51;;;;;;;;;;;;;;;-2.68;88.99;95141.81;5072392;28;1991;-58
2024/01/17 05:50:24;;;;;;;;;;;;;;;-2.72;91.23;95150.75;5073824;28;1073;-58
2024/01/17 05:53:11;;;;;;;;;;;;;;;-2.44;90.47;95149.28;5064801;28;1539;-58
2024/01/17 05:55:43;;;;;;;;;;;;;;;-2.44;88.91;95139.66;5053542;28;1504;-58
2024/01/17 05:58:15;;;;;;;;;;;;;;;-2.68;88.15;95149.66;5053552;28;1522;-58
2024/01/17 06:00:48;;;;;;;;;;;;;;;-2.72;89.17;95150.75;5053564;28;1428;-58
2024/01/17 06:03:19;;;;;;;;;;;;;;;-2.55;88.92;95135.00;5053660;28;1000;-59
2024/01/17 06:05:53;;;;;;;;;;;;;;;-2.44;88.80;95146.69;5053625;28;1601;-60
2024/01/17 06:08:22;;;;;;;;;;;;;;;-2.43;88.52;95150.97;5048481;28;1918;-60
2024/01/17 06:10:54;;;;;;;;;;;;;;;-2.71;87.86;95155.06;5033376;28;1510;-60
2024/01/17 06:13:26;;;;;;;;;;;;;;;-2.88;88.99;95149.84;5032273;28;1602;-60
2024/01/17 06:15:58;;;;;;;;;;;;;;;-2.67;89.35;95137.44;5032282;28;1417;-60
2024/01/17 06:18:31;;;;;;;;;;;;;;;-2.76;89.09;95130.91;5031754;28;1472;-60
2024/01/17 06:21:03;;;;;;;;;;;;;;;-2.48;90.24;95134.69;5032251;28;1551;-60
2024/01/17 06:23:36;;;;;;;;;;;;;;;-2.18;89.76;95140.88;5032324;28;1624;-60
2024/01/17 06:26:03;;;;;;;;;;;;;;;-1.99;90.15;95147.72;5032446;28;1060;-60
2024/01/17 06:28:29;;;;;;;;;;;;;;;-1.84;89.05;95144.22;5032999;28;1910;-60
2024/01/17 06:30:55;;;;;;;;;;;;;;;-1.77;88.92;95145.56;5033054;28;1088;-60
2024/01/17 06:33:21;;;;;;;;;;;;;;;-1.69;88.59;95162.63;5032888;28;1201;-60
2024/01/17 06:35:48;;;;;;;;;;;;;;;-1.80;90.05;95161.47;5033036;28;1110;-60
2024/01/17 06:38:14;;;;;;;;;;;;;;;-1.60;89.00;95162.13;5033299;28;1036;-60
2024/01/17 06:40:40;;;;;;;;;;;;;;;-1.43;89.26;95153.28;5033002;28;1104;-59
2024/01/17 06:43:06;;;;;;;;;;;;;;;-1.46;89.12;95145.59;5032963;28;1104;-60
2024/01/17 06:45:32;;;;;;;;;;;;;;;-1.19;88.96;95141.34;5032817;28;1081;-60
2024/01/17 06:48:01;;;;;;;;;;;;;;;-1.20;90.35;95154.56;5032801;28;1910;-60
2024/01/17 06:50:27;;;;;;;;;;;;;;;-1.19;89.32;95159.72;5032820;28;1021;-60
2024/01/17 06:52:53;;;;;;;;;;;;;;;-1.12;89.37;95164.59;5050156;28;1217;-60
2024/01/17 06:55:19;;;;;;;;;;;;;;;-0.84;89.47;95158.56;5072854;28;1060;-60
2024/01/17 06:57:45;;;;;;;;;;;;;;;-0.71;88.83;95154.28;5071528;28;1087;-60
2024/01/17 07:00:15;;;;;;;;;;;;;;;-0.68;88.37;95148.84;5073020;28;972;-61
2024/01/17 07:02:41;;;;;;;;;;;;;;;-0.57;87.82;95142.09;5072574;28;1039;-60
2024/01/17 07:05:07;;;;;;;;;;;;;;;-0.28;87.19;95143.75;5072963;28;1059;-61
2024/01/17 07:07:33;;;;;;;;;;;;;;;-0.06;85.99;95148.53;5072476;28;1902;-61
2024/01/17 07:10:00;;;;;;;;;;;;;;;1.20;80.58;95155.25;5072945;28;1051;-60
2024/01/17 07:12:26;;;;;;;;;;;;;;;3.61;71.74;95150.09;5072681;28;1030;-60
2024/01/17 07:14:54;;;;;;;;;;;;;;;3.11;71.96;95154.78;5072712;28;1054;-60
2024/01/17 07:17:20;;;;;;;;;;;;;;;6.60;60.90;95170.47;5072473;28;1140;-60
2024/01/17 07:19:46;;;;;;;;;;;;;;;7.33;55.23;95178.13;5072849;28;1074;-60
2024/01/17 07:22:13;;;;;;;;;;;;;;;4.93;63.39;95159.88;5072425;28;1040;-60
2024/01/17 07:24:39;;;;;;;;;;;;;;;3.54;68.19;95156.81;5072410;28;1200;-60
2024/01/17 07:27:05;;;;;;;;;;;;;;;2.73;70.99;95153.22;5076432;28;1902;-60
2024/01/17 07:29:31;;;;;;;;;;;;;;;2.29;74.49;95160.78;5074935;28;985;-59
2024/01/17 07:31:57;;;;;;;;;;;;;;;1.89;77.46;95158.34;5076052;28;1008;-60
2024/01/17 07:34:23;;;;;;;;;;;;;;;1.83;78.95;95164.06;5076064;28;920;-60
2024/01/17 07:36:51;;;;;;;;;;;;;;;2.48;75.83;95162.09;5076169;28;937;-60
2024/01/17 07:39:18;;;;;;;;;;;;;;;2.12;77.58;95153.25;5075995;28;992;-60
2024/01/17 07:41:44;;;;;;;;;;;;;;;2.21;77.62;95154.41;5076186;28;1004;-59
2024/01/17 07:44:10;;;;;;;;;;;;;;;1.94;78.91;95150.13;5076034;28;1024;-59
2024/01/17 07:46:38;;;;;;;;;;;;;;;1.92;80.24;95146.75;5076179;28;965;-58
2024/01/17 07:49:04;;;;;;;;;;;;;;;1.91;79.98;95153.81;5076124;28;1918;-58
2024/01/17 07:51:30;;;;;;;;;;;;;;;2.21;79.79;95142.03;5052557;28;1459;-58
2024/01/17 07:53:56;;;;;;;;;;;;;;;5.22;68.00;95164.63;5046399;28;1289;-59
2024/01/17 07:56:23;;;;;;;;;;;;;;;8.79;55.05;95180.38;5046451;28;1719;-59
2024/01/17 07:58:50;;;;;;;;;;;;;;;10.71;48.34;95202.91;5045428;28;1291;-60
2024/01/17 08:01:16;;;;;;;;;;;;;;;11.61;45.16;95205.81;5044790;28;1229;-60
2024/01/17 08:03:42;;;;;;;;;;;;;;;11.77;44.71;95210.34;5046427;28;1324;-60
2024/01/17 08:06:09;;;;;;;;;;;;;;;12.96;42.15;95224.09;5044041;28;1577;-60
2024/01/17 08:08:36;;;;;;;;;;;;;;;13.18;41.31;95220.59;5044658;28;1914;-60
2024/01/17 08:11:02;;;;;;;;;;;;;;;13.30;40.72;95234.53;5046049;28;1862;-60
2024/01/17 08:13:28;;;;;;;;;;;;;;;13.21;40.89;95232.84;5044967;28;1283;-60
2024/01/17 08:15:54;;;;;;;;;;;;;;;11.89;42.72;95226.91;5044434;28;1232;-59
2024/01/17 08:18:20;;;;;;;;;;;;;;;9.99;47.90;95213.81;5046089;28;1316;-60
2024/01/17 08:20:46;;;;;;;;;;;;;;;8.75;51.49;95203.81;5044329;28;1285;-60
2024/01/17 08:23:12;;;;;;;;;;;;;;;6.93;57.18;95192.38;5044643;28;1295;-59
2024/01/17 08:25:38;;;;;;;;;;;;;;;5.37;64.32;95167.75;5045629;28;1265;-60
2024/01/17 08:28:04;;;;;;;;;;;;;;;4.58;69.26;95154.84;5042847;28;2005;-59
2024/01/17 08:30:30;;;;;;;;;;;;;;;4.43;70.73;95152.47;5044636;28;1317;-60
2024/01/17 08:32:56;;;;;;;;;;;;;;;4.13;73.21;95150.47;5045583;28;1232;-60
2024/01/17 08:35:22;;;;;;;;;;;;;;;4.11;72.75;95168.25;5043102;28;1252;-60
2024/01/17 08:37:48;;;;;;;;;;;;;;;4.49;71.89;95157.25;5044382;28;1248;-60
2024/01/17 08:40:15;;;;;;;;;;;;;;;4.30;73.06;95165.84;5045200;28;1284;-60
2024/01/17 08:42:43;;;;;;;;;;;;;;;4.19;72.87;95172.94;5043455;28;1283;-60
2024/01/17 08:45:10;;;;;;;;;;;;;;;4.28;72.56;95165.13;5043441;28;1236;-60
2024/01/17 08:47:36;;;;;;;;;;;;;;;3.95;74.88;95168.63;5048048;28;1922;-61
2024/01/17 08:50:03;;;;;;;;;;;;;;;4.11;73.70;95169.09;5054944;28;1088;-61
2024/01/17 08:52:29;;;;;;;;;;;;;;;4.00;73.82;95160.34;5054709;28;1162;-62
2024/01/17 08:54:55;;;;;;;;;;;;;;;4.06;72.87;95166.00;5055245;28;1000;-62
2024/01/17 08:57:21;;;;;;;;;;;;;;;4.44;72.46;95159.44;5051553;28;1392;-59
2024/01/17 08:59:47;;;;;;;;;;;;;;;4.44;72.38;95164.75;5044400;28;1296;-59
2024/01/17 09:02:13;;;;;;;;;;;;;;;4.32;71.27;95160.41;5043721;28;1256;-59
2024/01/17 09:04:40;;;;;;;;;;;;;;;4.64;71.47;95162.28;5045390;28;1340;-59
2024/01/17 09:07:08;;;;;;;;;;;;;;;5.14;69.09;95156.44;5044198;28;1914;-59
2024/01/17 09:09:34;;;;;;;;;;;;;;;5.18;69.15;95150.78;5043057;28;1303;-59
2024/01/17 09:12:00;;;;;;;;;;;;;;;5.01;70.00;95146.88;5045215;28;1313;-59
2024/01/17 09:14:26;;;;;;;;;;;;;;;5.13;70.45;95149.47;5043986;28;1205;-59
2024/01/17 09:16:53;;;;;;;;;;;;;;;5.40;69.60;95149.78;5043573;28;1228;-59
2024/01/17 09:19:22;;;;;;;;;;;;;;;5.53;70.10;95151.41;5044961;28;1241;-59
2024/01/17 09:21:51;;;;;;;;;;;;;;;5.49;70.64;95145.53;5044133;28;1130;-59
2024/01/17 09:24:17;;;;;;;;;;;;;;;5.59;69.77;95146.41;5042445;28;1272;-59
2024/01/17 09:26:43;;;;;;;;;;;;;;;5.62;69.61;95130.25;5044491;28;1311;-59
2024/01/17 09:29:09;;;;;;;;;;;;;;;5.53;70.45;95135.50;5043005;28;1879;-59
2024/01/17 09:31:35;;;;;;;;;;;;;;;5.47;69.72;95131.56;5042771;28;1307;-59
2024/01/17 09:34:01;;;;;;;;;;;;;;;5.54;69.18;95126.56;5043676;28;1312;-59
2024/01/17 09:36:27;;;;;;;;;;;;;;;5.41;70.32;95126.78;5040958;28;1281;-59
2024/01/17 09:38:53;;;;;;;;;;;;;;;5.29;70.10;95128.63;5044256;28;1304;-59
2024/01/17 09:41:20;;;;;;;;;;;;;;;5.23;70.27;95116.75;5043439;28;1296;-59
2024/01/17 09:43:46;;;;;;;;;;;;;;;5.21;70.42;95107.25;5045117;28;1216;-59
2024/01/17 09:46:12;;;;;;;;;;;;;;;5.46;69.90;95103.34;5042626;28;1241;-59
2024/01/17 09:48:39;;;;;;;;;;;;;;;6.55;66.57;95093.03;5042288;28;1910;-59
2024/01/17 09:51:05;;;;;;;;;;;;;;;7.22;62.83;95105.47;5043236;28;1240;-59
2024/01/17 09:53:33;;;;;;;;;;;;;;;7.69;61.00;95101.19;5044668;28;1375;-59
2024/01/17 09:56:01;;;;;;;;;;;;;;;8.11;60.21;95103.41;5042639;28;1242;-58
2024/01/17 09:58:30;;;;;;;;;;;;;;;8.36;59.52;95091.22;5043170;28;1240;-59
2024/01/17 10:00:57;;;;;;;;;;;;;;;8.94;58.76;95076.69;5044333;28;1324;-59
2024/01/17 10:03:24;;;;;;;;;;;;;;;8.92;57.16;95081.34;5043113;28;1229;-59
2024/01/17 10:05:50;;;;;;;;;;;;;;;8.77;57.51;95081.88;5042572;28;1297;-58
2024/01/17 10:08:20;;;;;;;;;;;;;;;8.49;58.41;95072.25;5044573;28;2021;-59
2024/01/17 10:10:46;;;;;;;;;;;;;;;8.89;58.19;95074.47;5041133;28;1229;-59
2024/01/17 10:13:12;;;;;;;;;;;;;;;8.44;59.81;95058.53;5043309;28;1221;-58
2024/01/17 10:15:41;;;;;;;;;;;;;;;7.86;60.92;95057.84;5041826;28;1284;-58
2024/01/17 10:18:08;;;;;;;;;;;;;;;7.87;62.45;95054.16;5043660;28;1224;-58
2024/01/17 10:20:34;;;;;;;;;;;;;;;7.84;62.15;95043.00;5043568;28;1225;-58
2024/01/17 10:23:00;;;;;;;;;;;;;;;7.90;61.85;95032.59;5041690;28;1241;-58
2024/01/17 10:25:26;;;;;;;;;;;;;;;8.08;62.61;95032.66;5043035;28;1249;-58
2024/01/17 10:27:52;;;;;;;;;;;;;;;8.67;61.33;95034.94;5042893;28;1995;-58
2024/01/17 10:30:18;;;;;;;;;;;;;;;9.09;59.76;95034.31;5041537;28;1236;-58
2024/01/17 10:32:44;;;;;;;;;;;;;;;9.07;58.87;95022.94;5043491;28;1196;-58
2024/01/17 10:35:11;;;;;;;;;;;;;;;9.27;59.18;95018.28;5042618;28;1296;-59
2024/01/17 10:37:37;;;;;;;;;;;;;;;9.02;60.34;95006.59;5041660;28;1224;-59
2024/01/17 10:40:11;;;;;;;;;;;;;;;9.60;58.55;94997.97;5043498;28;1168;-58
2024/01/17 10:42:37;;;;;;;;;;;;;;;9.69;57.71;95002.31;5043638;28;1520;-58
2024/01/17 10:45:05;;;;;;;;;;;;;;;10.29;57.13;94997.91;5041785;28;1162;-58
2024/01/17 10:47:31;;;;;;;;;;;;;;;10.54;56.16;94994.28;5042519;28;1914;-59
2024/01/17 10:49:57;;;;;;;;;;;;;;;10.61;55.93;94991.00;5043735;28;1249;-58
2024/01/17 10:52:25;;;;;;;;;;;;;;;10.62;54.92;95001.50;5044373;28;1354;-59
2024/01/17 10:54:51;;;;;;;;;;;;;;;10.91;54.93;94992.19;5042509;28;1317;-59
2024/01/17 10:57:20;;;;;;;;;;;;;;;10.86;55.30;94976.63;5041847;28;1287;-58
2024/01/17 10:59:47;;;;;;;;;;;;;;;10.63;55.59;94978.28;5043437;28;1267;-59
2024/01/17 11:02:20;;;;;;;;;;;;;;;10.97;55.06;94975.44;5046215;28;1241;-59
2024/01/17 11:04:55;;;;;;;;;;;;;;;10.67;55.56;94964.41;5044852;28;1277;-59
2024/01/17 11:07:22;;;;;;;;;;;;;;;10.63;56.44;94956.91;5039479;28;1983;-61
2024/01/17 11:09:49;;;;;;;;;;;;;;;10.56;56.83;94964.72;5037102;28;969;-60
2024/01/17 11:12:16;;;;;;;;;;;;;;;10.54;55.99;94959.53;5036814;28;1004;-61
2024/01/17 11:14:42;;;;;;;;;;;;;;;10.47;56.32;94950.53;5036789;28;973;-60
2024/01/17 11:17:09;;;;;;;;;;;;;;;10.74;56.13;94943.19;5036636;28;1028;-62
2024/01/17 11:19:36;;;;;;;;;;;;;;;11.21;55.38;94949.66;5036473;28;1263;-59
2024/01/17 11:22:02;;;;;;;;;;;;;;;11.11;55.37;94949.84;5036392;28;1050;-59
2024/01/17 11:24:34;;;;;;;;;;;;;;;11.41;54.35;94945.63;5036245;28;1221;-60
2024/01/17 11:27:09;;;;;;;;;;;;;;;11.40;54.52;94943.97;5036408;28;1914;-59
2024/01/17 11:30:05;;;;;;;;;;;;;;;11.33;54.98;94949.16;5036374;28;1384;-59
2024/01/17 11:32:31;;;;;;;;;;;;;;;11.38;55.36;94937.91;5028179;28;1476;-61
2024/01/17 11:34:57;;;;;;;;;;;;;;;11.56;54.95;94936.88;5056167;28;1176;-60
2024/01/17 11:37:38;;;;;;;;;;;;;;;11.28;54.98;94918.53;5056108;28;1095;-60
2024/01/17 11:40:04;;;;;;;;;;;;;;;11.30;56.87;94895.94;5056236;28;1070;-60
2024/01/17 11:42:31;;;;;;;;;;;;;;;11.36;56.59;94888.25;5056071;28;1010;-60
2024/01/17 11:44:58;;;;;;;;;;;;;;;11.71;55.66;94894.97;5049905;28;1248;-59
2024/01/17 11:47:24;;;;;;;;;;;;;;;11.61;56.16;94895.19;5044571;28;1910;-60
2024/01/17 11:49:53;;;;;;;;;;;;;;;11.69;56.52;94884.44;5046239;28;1248;-60
2024/01/17 11:52:35;;;;;;;;;;;;;;;11.82;56.17;94883.03;5048649;28;1284;-60
2024/01/17 11:55:02;;;;;;;;;;;;;;;11.99;55.78;94873.09;5046487;28;1265;-60
2024/01/17 11:57:32;;;;;;;;;;;;;;;11.98;56.01;94872.25;5044776;28;1221;-60
2024/01/17 12:00:08;;;;;;;;;;;;;;;11.97;55.72;94888.50;5044806;28;1220;-60
2024/01/17 12:02:36;;;;;;;;;;;;;;;12.07;55.89;94870.38;5045783;28;1277;-59
2024/01/17 12:05:03;;;;;;;;;;;;;;;12.12;56.22;94876.03;5044484;28;1264;-61
2024/01/17 12:07:30;;;;;;;;;;;;;;;11.89;57.34;94863.44;5037838;28;1981;-61
2024/01/17 12:09:56;;;;;;;;;;;;;;;11.73;57.88;94868.84;5035559;28;988;-60
2024/01/17 12:12:22;;;;;;;;;;;;;;;11.79;56.98;94870.81;5035481;28;1024;-59
2024/01/17 12:14:48;;;;;;;;;;;;;;;11.86;56.95;94861.09;5035546;28;1231;-60
2024/01/17 12:17:15;;;;;;;;;;;;;;;11.77;57.56;94862.13;5035519;28;1060;-60
2024/01/17 12:19:42;;;;;;;;;;;;;;;11.96;57.10;94852.03;5035732;28;978;-60
2024/01/17 12:22:09;;;;;;;;;;;;;;;12.07;57.97;94849.75;5035485;28;1033;-60
2024/01/17 12:24:35;;;;;;;;;;;;;;;11.99;57.44;94848.97;5033902;28;1122;-59
2024/01/17 12:27:04;;;;;;;;;;;;;;;12.01;58.79;94845.13;5035505;28;2052;-60
2024/01/17 12:29:30;;;;;;;;;;;;;;;11.92;58.53;94832.78;5035341;28;996;-60
2024/01/17 12:31:56;;;;;;;;;;;;;;;11.99;59.73;94825.72;5035202;28;1072;-60
2024/01/17 12:34:22;;;;;;;;;;;;;;;12.21;62.44;94824.03;5035348;28;974;-59
2024/01/17 12:36:48;;;;;;;;;;;;;;;12.45;64.20;94825.69;5035196;28;981;-60
2024/01/17 12:39:14;;;;;;;;;;;;;;;12.59;63.56;94828.59;5035009;28;1049;-61
2024/01/17 12:41:40;;;;;;;;;;;;;;;12.74;62.75;94820.59;5035391;28;966;-60
2024/01/17 12:44:07;;;;;;;;;;;;;;;12.73;62.96;94800.97;5035305;28;1016;-61
2024/01/17 12:46:33;;;;;;;;;;;;;;;12.81;63.18;94810.78;5035022;28;942;-60
2024/01/17 12:49:01;;;;;;;;;;;;;;;12.71;62.93;94803.00;5033811;28;1906;-59
2024/01/17 12:51:29;;;;;;;;;;;;;;;12.63;63.84;94808.44;5035171;28;965;-60
2024/01/17 12:53:56;;;;;;;;;;;;;;;12.61;64.16;94805.09;5068719;28;1151;-61
2024/01/17 12:56:22;;;;;;;;;;;;;;;12.63;64.07;94795.84;5053055;28;1686;-61
2024/01/17 12:58:49;;;;;;;;;;;;;;;12.64;64.34;94789.50;5045584;28;1324;-61
2024/01/17 13:01:16;;;;;;;;;;;;;;;12.58;65.15;94771.44;5043425;28;1536;-60
2024/01/17 13:03:44;;;;;;;;;;;;;;;12.54;65.42;94772.84;5044182;28;1353;-61
2024/01/17 13:06:12;;;;;;;;;;;;;;;12.48;65.09;94774.41;5045117;28;1356;-61
2024/01/17 13:08:39;;;;;;;;;;;;;;;12.52;65.67;94785.59;5044021;28;1910;-61
2024/01/17 13:11:24;;;;;;;;;;;;;;;12.55;64.98;94784.38;5043655;28;1430;-61
2024/01/17 13:13:58;;;;;;;;;;;;;;;12.56;65.26;94794.94;5045355;28;1588;-61
2024/01/17 13:16:29;;;;;;;;;;;;;;;12.59;65.53;94785.69;5043432;28;1249;-62
2024/01/17 13:18:58;;;;;;;;;;;;;;;12.57;65.91;94788.53;5043207;28;1225;-61